Weed, New Mexico
Current Conditions -  °F | °C
As of 3:55 PM on Wednesday 26 Nov 2014 (Local Time) from KALM Reporting Station
Clear Clear  
Wind Chill: 64°   Ceiling: Unl
Heat Index: 64°   Visibility: 10mi
Dew Point: 19°   Wind: 14mph
Humidity: 18%   Direction: 340°NNW
Pressure: 30.27"   Gusts: NA
Location:  32.8°N, 105.52°W
Report Text: KALM 262255Z AUTO 34012KT 10SM CLR 18/M07 A3027 RMK AO2
Loading
Personal Weather Stations






























Interactive Weather Map New forecast layout! Learn more

10-Day Weather Forecast

Advertisements
Track Severe Weather on mobile